KIIB

Independence Municipal Airport

Independence, Iowa, USA
METAR KIIB 221455Z AUTO 32003KT 10SM CLR 08/03 A3010 RMK AO2 T00770028
Observed Flight Rules
Oct-22 @ 14:55 UTC (18 minutes ago) Visual Flight Rules
Wind Visibility Clouds
320° at 3 knots 10 miles
  • Clear skies
Temperatures Readings
Current 8°C / 46°F
Dewpoint 3°C / 37°F
Humidity 71%
Altimeter 30.1" Hg
Pressure 1019 hPa
Elevation 298
METAR KIIB 221455Z AUTO 32003KT 10SM CLR 08/03 A3010 RMK AO2 T00770028
Observed Flight Rules
Oct-22 @ 14:55 UTC
(18 minutes ago)
VFR
Wind Visibility
320° at 3 knots 10 miles
Clouds
  • Clear skies
Temperature Dewpoint
8°C / 46°F 3°C / 37°F
Humidity Altimeter Pressure
71% 30.1" Hg 1019 hPa